Terminal Aerodrome Forecast
Issued by NWS

Home | Current Version | Previous Version | Text Only | Print | Product List | Glossary Off
Versions: 1 2 3 4 5 6 7 8 9 10 11 12 13 14 15 16 17 18 19

000
FTUS43 KIWX 242320
TAFSBN
TAF
KSBN 242320Z 2500/2524 25012G20KT P6SM VCSH BKN020 OVC050
      TEMPO 2501/2504 SCT007 OVC015
     FM251000 26016G24KT 3SM -SHSN SCT009 OVC015
     FM251700 28017G25KT P6SM VCSH OVC025
     FM252100 28015KT P6SM OVC040=

USA.gov is the U.S. government's official web portal to all federal, state and local government web resources and services.